Time;durP1;ratioP1;P1;durP2;ratioP2;P2;SDS_P1;SDS_P2;PMS_P1;PMS_P2;Temp;Humidity;BMP_temperature;BMP_pressure;BME280_temperature;BME280_humidity;BME280_pressure;Samples;Min_cycle;Max_cycle;Signal;HPM_P1;HPM_P2
2023/05/21 00:01:15;;;;;;;21.03;18.93;;;15.40;99.90;;;;;;6133780;23;20233;-84
2023/05/21 00:03:44;;;;;;;21.83;19.63;;;15.40;99.90;;;;;;6110877;23;20434;-86
2023/05/21 00:06:14;;;;;;;21.63;19.30;;;15.30;99.90;;;;;;6135395;23;20267;-84
2023/05/21 00:08:41;;;;;;;22.70;16.50;;;15.30;99.90;;;;;;6135141;23;20400;-89
2023/05/21 00:11:10;;;;;;;21.27;19.17;;;15.20;99.90;;;;;;6134232;23;20451;-83
2023/05/21 00:13:37;;;;;;;18.20;16.30;;;15.30;99.90;;;;;;6135434;23;20441;-82
2023/05/21 00:16:04;;;;;;;17.83;15.57;;;15.30;99.90;;;;;;6139256;23;20267;-80
2023/05/21 00:18:53;;;;;;;19.67;17.50;;;15.30;99.90;;;;;;6132773;23;20398;-86
2023/05/21 00:21:28;;;;;;;20.27;18.17;;;15.20;99.90;;;;;;6107609;23;20401;-84
2023/05/21 00:23:57;;;;;;;21.53;17.87;;;15.10;99.90;;;;;;6130652;23;20394;-85
2023/05/21 00:26:24;;;;;;;17.73;16.03;;;15.10;99.90;;;;;;6132826;23;20431;-83
2023/05/21 00:28:53;;;;;;;21.20;17.23;;;15.00;99.90;;;;;;6114831;23;20408;-88
2023/05/21 00:31:20;;;;;;;17.50;15.80;;;15.10;99.90;;;;;;6149322;23;20363;-83
2023/05/21 00:33:47;;;;;;;20.97;18.83;;;14.80;99.90;;;;;;6149441;23;20499;-86
2023/05/21 00:36:14;;;;;;;18.15;16.08;;;14.80;99.90;;;;;;6110557;23;20638;-79
2023/05/21 00:38:44;;;;;;;20.77;16.80;;;14.90;99.90;;;;;;6104407;23;20190;-83
2023/05/21 00:41:11;;;;;;;19.63;17.63;;;14.80;99.90;;;;;;6103815;23;20186;-84
2023/05/21 00:43:39;;;;;;;19.15;17.10;;;14.70;99.90;;;;;;6129823;23;20189;-84
2023/05/21 00:46:07;;;;;;;21.73;19.08;;;14.90;99.90;;;;;;6129826;23;20186;-84
2023/05/21 00:48:34;;;;;;;19.73;17.70;;;14.80;99.90;;;;;;6128968;23;20461;-79
2023/05/21 00:51:03;;;;;;;20.42;17.85;;;14.90;99.90;;;;;;6129025;23;20505;-79
2023/05/21 00:53:33;;;;;;;19.15;17.25;;;15.00;99.90;;;;;;6130084;23;20269;-87
2023/05/21 00:56:01;;;;;;;19.33;17.20;;;14.80;99.90;;;;;;6131153;23;20170;-86
2023/05/21 00:58:28;;;;;;;18.30;16.43;;;14.80;99.90;;;;;;6130222;23;20185;-84
2023/05/21 01:00:56;;;;;;;21.17;17.40;;;14.70;99.90;;;;;;6130551;23;20459;-82
2023/05/21 01:03:22;;;;;;;20.67;17.63;;;14.70;99.90;;;;;;6130385;23;20216;-85
2023/05/21 01:05:52;;;;;;;20.05;15.80;;;14.70;99.90;;;;;;6105747;23;20513;-85
2023/05/21 01:08:20;;;;;;;19.15;17.23;;;14.70;99.90;;;;;;6144167;23;20170;-83
2023/05/21 01:10:51;;;;;;;21.30;17.60;;;14.60;99.90;;;;;;6148879;23;20196;-84
2023/05/21 01:13:21;;;;;;;19.83;17.83;;;14.50;99.90;;;;;;6147185;23;20228;-87
2023/05/21 01:15:49;;;;;;;19.73;17.58;;;14.50;99.90;;;;;;6131837;23;20248;-87
2023/05/21 01:18:20;;;;;;;20.65;17.90;;;14.60;99.90;;;;;;6130906;23;20238;-85
2023/05/21 01:20:47;;;;;;;29.45;17.00;;;14.50;99.90;;;;;;6106512;23;20244;-84
2023/05/21 01:23:19;;;;;;;22.52;17.40;;;14.60;99.90;;;;;;6105116;23;20178;-87
2023/05/21 01:25:46;;;;;;;17.02;15.27;;;14.60;99.90;;;;;;6129513;23;20181;-82
2023/05/21 01:28:14;;;;;;;18.48;16.58;;;14.70;99.90;;;;;;6129829;23;20217;-81
2023/05/21 01:30:42;;;;;;;19.83;15.77;;;14.60;99.90;;;;;;6129986;23;20204;-83
2023/05/21 01:33:22;;;;;;;19.52;17.05;;;14.90;99.90;;;;;;6131624;23;20205;-87
2023/05/21 01:36:14;;;;;;;19.05;16.52;;;14.70;99.90;;;;;;6129397;23;20495;-82
2023/05/21 01:39:14;;;;;;;20.10;15.93;;;14.80;99.90;;;;;;6129768;23;20168;-82
2023/05/21 01:41:45;;;;;;;17.15;14.93;;;14.70;99.90;;;;;;6123869;23;20408;-87
2023/05/21 01:44:13;;;;;;;19.15;15.43;;;14.60;99.90;;;;;;6130131;23;20185;-83
2023/05/21 01:46:40;;;;;;;15.68;14.13;;;14.50;99.90;;;;;;6129947;23;20186;-81
2023/05/21 01:49:08;;;;;;;17.40;15.35;;;14.60;99.90;;;;;;6129902;23;20185;-83
2023/05/21 01:51:36;;;;;;;16.13;14.40;;;14.50;99.90;;;;;;6104215;23;20185;-81
2023/05/21 01:54:03;;;;;;;17.75;15.85;;;14.60;99.90;;;;;;6130932;23;20494;-88
2023/05/21 01:56:32;;;;;;;15.25;13.68;;;14.50;99.90;;;;;;6130800;23;20191;-81
2023/05/21 01:59:00;;;;;;;19.92;17.83;;;14.50;99.90;;;;;;6104024;23;20174;-82
2023/05/21 02:01:30;;;;;;;18.02;16.23;;;14.50;99.90;;;;;;6104583;23;20206;-83
2023/05/21 02:03:57;;;;;;;16.17;14.45;;;14.50;99.90;;;;;;6129332;23;20189;-79
2023/05/21 02:06:24;;;;;;;17.10;15.40;;;14.50;99.90;;;;;;6130006;23;20170;-83
2023/05/21 02:08:51;;;;;;;15.18;13.65;;;14.40;99.90;;;;;;6105159;23;20220;-86
2023/05/21 02:11:18;;;;;;;16.23;14.63;;;14.30;99.90;;;;;;6130447;23;20221;-84
2023/05/21 02:13:45;;;;;;;19.00;16.63;;;14.30;99.90;;;;;;6131083;23;20206;-81
2023/05/21 02:16:14;;;;;;;17.67;15.75;;;14.20;99.90;;;;;;6131268;23;20233;-82
2023/05/21 02:18:50;;;;;;;18.08;16.27;;;14.20;99.90;;;;;;6106661;23;20209;-88
2023/05/21 02:21:37;;;;;;;19.38;17.38;;;14.20;99.90;;;;;;6108080;23;20226;-81
2023/05/21 02:24:04;;;;;;;20.77;16.23;;;14.20;99.90;;;;;;6105072;23;20217;-87
2023/05/21 02:26:31;;;;;;;16.88;15.18;;;14.30;99.90;;;;;;6104858;23;20196;-82
2023/05/21 02:28:58;;;;;;;20.30;14.48;;;14.20;99.90;;;;;;6129881;23;20185;-87
2023/05/21 02:31:25;;;;;;;17.73;15.55;;;14.20;99.90;;;;;;6132176;23;20603;-80
2023/05/21 02:33:52;;;;;;;20.33;16.65;;;14.10;99.90;;;;;;6132932;23;20264;-85
2023/05/21 02:36:19;;;;;;;18.33;15.75;;;13.90;99.90;;;;;;6105651;23;20537;-79
2023/05/21 02:38:47;;;;;;;17.80;15.90;;;13.80;99.90;;;;;;6133046;23;20208;-79
2023/05/21 02:41:14;;;;;;;22.08;15.02;;;13.90;99.90;;;;;;6131911;23;20253;-78
2023/05/21 02:43:41;;;;;;;16.90;15.25;;;13.90;99.90;;;;;;6132127;23;20213;-80
2023/05/21 02:46:08;;;;;;;26.17;15.10;;;13.90;99.90;;;;;;6131557;23;20365;-77
2023/05/21 02:48:35;;;;;;;17.23;15.52;;;13.90;99.90;;;;;;6131543;23;20185;-81
2023/05/21 02:51:04;;;;;;;19.33;17.13;;;13.90;99.90;;;;;;6132435;23;20693;-79
2023/05/21 02:53:31;;;;;;;22.40;15.73;;;14.00;99.90;;;;;;6131016;23;20490;-80
2023/05/21 02:55:58;;;;;;;18.58;16.58;;;14.00;99.90;;;;;;6130939;23;20205;-84
2023/05/21 02:58:25;;;;;;;17.65;15.75;;;14.10;99.90;;;;;;6132857;23;20252;-85
2023/05/21 03:00:52;;;;;;;21.33;19.25;;;13.90;99.90;;;;;;6131302;23;20189;-87
2023/05/21 03:03:19;;;;;;;18.85;15.65;;;13.70;99.90;;;;;;6131911;23;20193;-86
2023/05/21 03:05:47;;;;;;;17.90;16.10;;;13.80;99.90;;;;;;6106955;23;20185;-79
2023/05/21 03:08:14;;;;;;;17.33;15.52;;;13.70;99.90;;;;;;6133151;23;20178;-80
2023/05/21 03:10:40;;;;;;;20.38;15.50;;;13.90;99.90;;;;;;6133476;23;20196;-84
2023/05/21 03:13:09;;;;;;;18.45;16.23;;;13.90;99.90;;;;;;6107505;23;20527;-88
2023/05/21 03:15:38;;;;;;;18.92;15.43;;;13.90;99.90;;;;;;6134759;23;20212;-80
2023/05/21 03:18:06;;;;;;;16.42;14.20;;;14.00;99.90;;;;;;6131902;23;20205;-87
2023/05/21 03:20:33;;;;;;;16.13;14.52;;;14.00;99.90;;;;;;6107129;23;20532;-80
2023/05/21 03:23:03;;;;;;;16.50;14.80;;;14.00;99.90;;;;;;6132068;23;20202;-81
2023/05/21 03:25:30;;;;;;;19.52;15.88;;;14.10;99.90;;;;;;6108037;23;20520;-86
2023/05/21 03:28:01;;;;;;;16.55;13.85;;;14.20;99.90;;;;;;6117607;23;20192;-86
2023/05/21 03:30:28;;;;;;;22.83;16.73;;;14.20;99.90;;;;;;6124029;23;20197;-83
2023/05/21 03:32:56;;;;;;;15.25;13.88;;;14.30;99.90;;;;;;6149076;23;20198;-81
2023/05/21 03:35:23;;;;;;;16.73;15.00;;;14.40;99.90;;;;;;6123770;23;20273;-81
2023/05/21 03:37:50;;;;;;;16.63;14.35;;;14.60;99.90;;;;;;6135967;23;20216;-87
2023/05/21 03:40:17;;;;;;;17.20;13.57;;;14.70;99.90;;;;;;6133373;23;20265;-87
2023/05/21 03:42:44;;;;;;;15.50;13.95;;;15.00;99.90;;;;;;6134401;23;20185;-80
2023/05/21 03:45:14;;;;;;;15.97;14.27;;;14.80;99.90;;;;;;6132675;23;20182;-89
2023/05/21 03:47:41;;;;;;;14.30;12.40;;;14.90;99.90;;;;;;6131909;23;20480;-87
2023/05/21 03:50:09;;;;;;;13.35;12.05;;;15.00;99.90;;;;;;6132355;23;20394;-84
2023/05/21 03:52:37;;;;;;;14.43;12.93;;;15.00;99.90;;;;;;6130669;23;20524;-86
2023/05/21 03:55:05;;;;;;;14.35;12.95;;;15.00;99.90;;;;;;6132646;23;20546;-87
2023/05/21 03:57:32;;;;;;;16.13;14.50;;;14.90;99.90;;;;;;6131130;23;20186;-87
2023/05/21 03:59:59;;;;;;;16.58;13.32;;;15.10;99.90;;;;;;6105217;23;20518;-81
2023/05/21 04:02:26;;;;;;;15.20;13.07;;;15.30;99.90;;;;;;6105319;23;20186;-82
2023/05/21 04:04:54;;;;;;;15.97;14.33;;;15.10;99.90;;;;;;6130269;23;20475;-87
2023/05/21 04:07:21;;;;;;;15.17;11.50;;;15.30;99.90;;;;;;6130363;23;20412;-83
2023/05/21 04:09:49;;;;;;;12.60;11.40;;;15.40;99.90;;;;;;6131564;23;20665;-81
2023/05/21 04:12:17;;;;;;;13.60;12.20;;;15.30;99.90;;;;;;6129285;23;20531;-80
2023/05/21 04:14:45;;;;;;;16.03;13.77;;;15.40;99.90;;;;;;6105126;23;20454;-86
2023/05/21 04:17:12;;;;;;;16.30;12.20;;;15.50;99.90;;;;;;6105430;23;20404;-87
2023/05/21 04:19:42;;;;;;;16.73;12.93;;;15.40;99.90;;;;;;6106025;23;20407;-86
2023/05/21 04:22:11;;;;;;;17.40;12.03;;;15.50;99.90;;;;;;6107310;23;20384;-88
2023/05/21 04:24:38;;;;;;;14.83;13.23;;;15.50;99.90;;;;;;6105951;23;20479;-86
2023/05/21 04:27:05;;;;;;;14.77;13.33;;;15.50;99.90;;;;;;6104961;23;20423;-82
2023/05/21 04:29:32;;;;;;;14.50;12.33;;;15.50;99.90;;;;;;6132491;23;20423;-87
2023/05/21 04:31:59;;;;;;;15.07;12.77;;;15.50;99.90;;;;;;6119661;23;20399;-85
2023/05/21 04:34:26;;;;;;;13.90;12.43;;;15.60;99.90;;;;;;6123413;23;20438;-83
2023/05/21 04:36:53;;;;;;;15.90;14.40;;;15.60;99.90;;;;;;6148047;23;20196;-79
2023/05/21 04:39:20;;;;;;;16.83;13.13;;;15.60;99.90;;;;;;6133473;23;20599;-86
2023/05/21 04:41:49;;;;;;;16.23;13.47;;;15.70;99.90;;;;;;6132573;23;20750;-81
2023/05/21 04:44:17;;;;;;;14.60;13.10;;;15.70;99.90;;;;;;6130784;23;20405;-86
2023/05/21 04:46:44;;;;;;;15.73;12.53;;;15.70;99.90;;;;;;6131443;23;20556;-80
2023/05/21 04:49:14;;;;;;;15.23;11.80;;;15.80;99.90;;;;;;6130648;23;20397;-82
2023/05/21 04:51:41;;;;;;;14.70;12.43;;;15.90;99.90;;;;;;6105766;23;20241;-87
2023/05/21 04:54:08;;;;;;;14.47;12.10;;;15.90;99.90;;;;;;6135695;23;20495;-87
2023/05/21 04:56:36;;;;;;;14.50;13.00;;;16.00;99.90;;;;;;6139608;23;20370;-83
2023/05/21 04:59:05;;;;;;;15.80;12.83;;;16.00;99.90;;;;;;6144924;23;20398;-81
2023/05/21 05:01:33;;;;;;;12.07;10.63;;;16.10;99.90;;;;;;6148671;23;20391;-82
2023/05/21 05:04:01;;;;;;;13.33;11.73;;;16.20;99.90;;;;;;6146659;23;20423;-81
2023/05/21 05:06:27;;;;;;;11.93;10.40;;;16.30;99.90;;;;;;6146806;23;20849;-82
2023/05/21 05:08:54;;;;;;;17.77;11.43;;;16.50;99.90;;;;;;6145845;23;20370;-85
2023/05/21 05:11:22;;;;;;;13.20;11.80;;;16.50;99.90;;;;;;6146530;23;20467;-81
2023/05/21 05:13:49;;;;;;;16.57;14.50;;;16.60;99.90;;;;;;6150058;23;20367;-85
2023/05/21 05:16:18;;;;;;;12.87;11.30;;;16.80;99.90;;;;;;6150097;23;20911;-81
2023/05/21 05:18:47;;;;;;;13.50;11.77;;;16.90;99.90;;;;;;6134197;23;20604;-84
2023/05/21 05:21:14;;;;;;;13.10;11.77;;;17.00;99.90;;;;;;6134019;23;20384;-82
2023/05/21 05:23:41;;;;;;;12.20;11.17;;;17.30;99.90;;;;;;6132963;23;20375;-82
2023/05/21 05:26:09;;;;;;;12.67;11.37;;;17.20;99.90;;;;;;6103838;23;20468;-87
2023/05/21 05:28:38;;;;;;;11.93;10.67;;;17.30;99.90;;;;;;6105547;23;20782;-83
2023/05/21 05:31:05;;;;;;;11.10;10.10;;;17.50;99.90;;;;;;6129595;23;20404;-84
2023/05/21 05:33:32;;;;;;;15.77;11.30;;;17.70;99.90;;;;;;6132559;23;20412;-81
2023/05/21 05:36:00;;;;;;;12.80;10.80;;;17.90;99.90;;;;;;6104300;23;20986;-81
2023/05/21 05:38:27;;;;;;;11.20;10.10;;;17.70;99.90;;;;;;6130847;23;20755;-79
2023/05/21 05:40:59;;;;;;;12.00;9.93;;;17.80;99.90;;;;;;6132202;23;20408;-87
2023/05/21 05:43:26;;;;;;;11.80;10.70;;;17.80;99.90;;;;;;6104384;23;20367;-82
2023/05/21 05:45:53;;;;;;;12.10;11.00;;;18.00;99.90;;;;;;6130772;23;20600;-85
2023/05/21 05:48:20;;;;;;;12.50;10.33;;;18.20;99.90;;;;;;6131762;23;20414;-83
2023/05/21 05:50:49;;;;;;;12.57;11.27;;;18.40;99.90;;;;;;6107534;23;20414;-85
2023/05/21 05:53:16;;;;;;;11.00;9.80;;;18.40;99.90;;;;;;6105419;23;20382;-85
2023/05/21 05:55:44;;;;;;;12.27;11.17;;;18.70;99.90;;;;;;6130823;23;20441;-81
2023/05/21 05:58:11;;;;;;;11.27;10.37;;;18.80;99.90;;;;;;6131043;23;20473;-81
2023/05/21 06:00:45;;;;;;;12.07;10.73;;;18.90;99.90;;;;;;6106905;23;20450;-82
2023/05/21 06:03:19;;;;;;;10.07;9.17;;;18.90;99.90;;;;;;6130740;23;20358;-89
2023/05/21 06:05:50;;;;;;;11.27;9.10;;;19.00;99.90;;;;;;6133224;23;20366;-81
2023/05/21 06:08:17;;;;;;;10.43;9.43;;;19.20;99.90;;;;;;6086385;23;20467;-84
2023/05/21 06:10:46;;;;;;;12.73;11.40;;;19.20;99.90;;;;;;6133185;23;20479;-83
2023/05/21 06:13:13;;;;;;;11.53;9.33;;;19.40;99.90;;;;;;6134159;23;20711;-85
2023/05/21 06:15:42;;;;;;;10.63;9.60;;;19.60;99.90;;;;;;6136482;23;20435;-87
2023/05/21 06:18:10;;;;;;;10.20;9.30;;;19.40;99.90;;;;;;6132120;23;20400;-85
2023/05/21 06:20:45;;;;;;;10.57;9.00;;;19.90;99.90;;;;;;6132621;23;20362;-84
2023/05/21 06:23:12;;;;;;;11.17;9.90;;;20.10;99.90;;;;;;6135201;23;20395;-84
2023/05/21 06:25:39;;;;;;;9.23;8.33;;;20.40;99.90;;;;;;6107484;23;20384;-84
2023/05/21 06:28:06;;;;;;;11.37;10.27;;;20.40;99.90;;;;;;6134095;23;20387;-83
2023/05/21 06:30:33;;;;;;;13.13;9.73;;;20.50;99.90;;;;;;6108927;23;20407;-85
2023/05/21 06:33:10;;;;;;;13.70;9.40;;;20.60;99.90;;;;;;6133925;23;20371;-83
2023/05/21 06:35:38;;;;;;;9.40;8.40;;;20.70;99.90;;;;;;6135521;23;20394;-85
2023/05/21 06:38:05;;;;;;;10.33;9.43;;;21.00;99.90;;;;;;6111712;23;20394;-85
2023/05/21 06:40:35;;;;;;;9.30;8.50;;;21.50;99.90;;;;;;6109199;23;20447;-86
2023/05/21 06:43:04;;;;;;;8.43;7.57;;;22.20;99.90;;;;;;6134183;23;20381;-84
2023/05/21 06:45:34;;;;;;;9.23;8.30;;;22.60;99.90;;;;;;6135653;23;20355;-84
2023/05/21 06:48:04;;;;;;;9.97;9.10;;;22.80;99.90;;;;;;6122953;23;20374;-88
2023/05/21 06:50:32;;;;;;;10.20;7.97;;;23.00;99.90;;;;;;6147665;23;20400;-83
2023/05/21 06:53:00;;;;;;;9.43;8.50;;;23.10;99.90;;;;;;6149066;23;20471;-88
2023/05/21 06:55:27;;;;;;;8.90;7.63;;;23.70;99.90;;;;;;6149697;23;20442;-87
2023/05/21 06:57:54;;;;;;;10.67;7.67;;;24.20;99.90;;;;;;6125149;23;20404;-82
2023/05/21 07:00:22;;;;;;;8.87;7.90;;;24.20;99.90;;;;;;6148743;23;20400;-86
2023/05/21 07:02:49;;;;;;;9.53;8.67;;;23.90;99.90;;;;;;6123218;23;20382;-85
2023/05/21 07:05:16;;;;;;;7.63;7.03;;;24.50;99.90;;;;;;6147624;23;20396;-89
2023/05/21 07:07:43;;;;;;;9.70;8.83;;;25.10;99.90;;;;;;6123217;23;20448;-84
2023/05/21 07:10:10;;;;;;;8.07;7.33;;;25.30;99.90;;;;;;6144941;23;20476;-88
2023/05/21 07:12:39;;;;;;;7.87;7.20;;;25.10;99.90;;;;;;6138609;23;20404;-89
2023/05/21 07:15:08;;;;;;;8.73;7.90;;;25.80;99.90;;;;;;6135275;23;20566;-88
2023/05/21 07:17:37;;;;;;;11.47;8.23;;;25.90;99.90;;;;;;6106490;23;20439;-84
2023/05/21 07:20:08;;;;;;;9.40;8.50;;;26.10;99.90;;;;;;6133488;23;20462;-87
2023/05/21 07:22:48;;;;;;;8.13;7.30;;;26.00;99.90;;;;;;6112445;23;20408;-86
2023/05/21 07:25:18;;;;;;;10.77;7.90;;;26.70;99.90;;;;;;6109803;23;20415;-87
2023/05/21 07:27:45;;;;;;;7.03;6.43;;;27.90;99.90;;;;;;6107914;23;20423;-83
2023/05/21 07:30:13;;;;;;;8.00;7.30;;;27.60;99.90;;;;;;6135261;23;20483;-84
2023/05/21 07:32:41;;;;;;;9.77;8.13;;;29.40;99.90;;;;;;6133691;23;20396;-86
2023/05/21 07:35:08;;;;;;;9.30;7.40;;;30.30;99.90;;;;;;6132882;23;20406;-85
2023/05/21 07:37:35;;;;;;;9.57;7.47;;;30.40;99.90;;;;;;6133137;23;20405;-86
2023/05/21 07:40:03;;;;;;;9.83;7.53;;;30.70;99.90;;;;;;6133348;23;20419;-84
2023/05/21 07:42:30;;;;;;;8.80;8.00;;;31.80;99.70;;;;;;6132640;23;20688;-88
2023/05/21 07:45:01;;;;;;;8.07;7.37;;;31.70;98.60;;;;;;6133111;23;20438;-85
2023/05/21 07:47:30;;;;;;;8.87;8.00;;;31.80;97.10;;;;;;6133368;23;20383;-85
2023/05/21 07:49:58;;;;;;;7.20;6.70;;;31.20;98.10;;;;;;6132933;23;20423;-84
2023/05/21 07:52:24;;;;;;;8.30;7.70;;;31.80;97.30;;;;;;6132612;23;20388;-83
2023/05/21 07:54:51;;;;;;;8.27;7.57;;;32.60;94.90;;;;;;6133625;23;20616;-85
2023/05/21 07:57:18;;;;;;;10.37;6.73;;;32.10;94.80;;;;;;6133093;23;20408;-82
2023/05/21 07:59:45;;;;;;;7.90;6.93;;;32.10;93.60;;;;;;6132438;23;20388;-87
2023/05/21 08:02:12;;;;;;;7.40;6.80;;;33.00;93.30;;;;;;6136877;23;20392;-87
2023/05/21 08:04:46;;;;;;;7.90;7.10;;;32.50;91.90;;;;;;6144689;23;20393;-86
2023/05/21 08:07:15;;;;;;;8.20;7.50;;;31.70;93.90;;;;;;6121130;23;20426;-85
2023/05/21 08:09:46;;;;;;;7.93;7.33;;;31.70;93.90;;;;;;6146478;23;20405;-87
2023/05/21 08:12:14;;;;;;;7.97;7.37;;;32.00;94.30;;;;;;6120079;23;20426;-84
2023/05/21 08:14:42;;;;;;;12.27;8.70;;;32.20;93.00;;;;;;6159734;23;20404;-85
2023/05/21 08:17:17;;;;;;;8.50;6.83;;;33.60;90.10;;;;;;6141599;23;20717;-84
2023/05/21 08:19:55;;;;;;;8.50;7.63;;;33.70;85.40;;;;;;6145624;23;20384;-86
2023/05/21 08:22:44;;;;;;;8.07;7.37;;;34.80;80.70;;;;;;6135840;23;20431;-88
2023/05/21 08:25:11;;;;;;;8.20;7.57;;;33.80;80.60;;;;;;6137053;23;20426;-81
2023/05/21 08:30:30;;;;;;;7.73;7.13;;;31.00;93.30;;;;;;6151132;23;20548;-88
2023/05/21 08:33:00;;;;;;;9.97;9.07;;;30.00;97.90;;;;;;6196542;23;20452;-87
2023/05/21 08:35:27;;;;;;;8.77;7.97;;;30.60;97.30;;;;;;6194535;23;20449;-85
2023/05/21 08:37:58;;;;;;;7.77;7.17;;;29.90;99.80;;;;;;6168448;23;20413;-87
2023/05/21 08:40:25;;;;;;;8.70;7.90;;;29.80;98.70;;;;;;6192395;23;20461;-87
2023/05/21 08:42:59;;;;;;;15.93;8.40;;;29.40;99.90;;;;;;6191324;23;20410;-88
2023/05/21 08:45:30;;;;;;;7.93;7.30;;;30.00;99.30;;;;;;6192068;23;20416;-89
2023/05/21 08:47:58;;;;;;;8.43;7.73;;;31.10;97.50;;;;;;6194542;23;20383;-85
2023/05/21 08:50:31;;;;;;;8.27;7.57;;;31.80;94.10;;;;;;6195148;23;20454;-88
2023/05/21 08:53:03;;;;;;;7.30;6.70;;;30.50;94.10;;;;;;6196071;23;20399;-89
2023/05/21 08:55:56;;;;;;;8.70;7.23;;;30.70;94.20;;;;;;6196706;23;20419;-88
2023/05/21 08:58:23;;;;;;;6.17;5.67;;;30.70;93.70;;;;;;6197751;23;20372;-85
2023/05/21 09:00:50;;;;;;;7.07;6.37;;;31.10;94.20;;;;;;6206200;23;20430;-85
2023/05/21 09:03:21;;;;;;;6.40;5.90;;;30.40;93.80;;;;;;6204798;23;20406;-89
2023/05/21 09:05:48;;;;;;;6.20;5.60;;;29.20;97.00;;;;;;6198725;23;20393;-86
2023/05/21 09:08:26;;;;;;;6.27;5.73;;;28.10;99.90;;;;;;6193708;23;20622;-88
2023/05/21 09:10:53;;;;;;;6.50;5.90;;;29.30;98.60;;;;;;6193001;23;20423;-89
2023/05/21 09:13:20;;;;;;;6.33;5.73;;;29.30;97.60;;;;;;6194476;23;20399;-87
2023/05/21 09:15:47;;;;;;;6.03;5.43;;;28.50;99.90;;;;;;6199501;23;20793;-88
2023/05/21 09:18:14;;;;;;;6.07;5.50;;;28.70;99.90;;;;;;6205384;23;20418;-87
2023/05/21 09:20:44;;;;;;;11.20;6.73;;;29.60;97.10;;;;;;6204544;23;20398;-85
2023/05/21 09:23:15;;;;;;;6.80;6.10;;;29.80;97.90;;;;;;6250775;22;20430;-85
2023/05/21 09:25:47;;;;;;;5.87;5.47;;;29.40;99.40;;;;;;6197419;23;20377;-87
2023/05/21 09:28:33;;;;;;;10.97;6.73;;;29.10;99.90;;;;;;6193548;23;20369;-87
2023/05/21 09:31:04;;;;;;;7.20;6.50;;;29.40;99.90;;;;;;6242335;23;20421;-88
2023/05/21 09:33:45;;;;;;;6.30;5.80;;;28.10;99.90;;;;;;6241686;23;20370;-86
2023/05/21 09:36:18;;;;;;;6.60;6.10;;;27.00;99.90;;;;;;6194300;23;20467;-87
2023/05/21 09:38:47;;;;;;;6.83;6.30;;;26.70;99.90;;;;;;6194221;23;20473;-86
2023/05/21 09:41:18;;;;;;;6.93;6.30;;;26.60;99.90;;;;;;6194801;23;20414;-88
2023/05/21 09:43:48;;;;;;;6.50;6.00;;;26.10;99.90;;;;;;6196003;23;20417;-89
2023/05/21 09:46:19;;;;;;;7.30;5.50;;;26.10;99.90;;;;;;6193642;23;20386;-89
2023/05/21 09:48:49;;;;;;;6.40;5.80;;;26.20;99.90;;;;;;6194834;23;20386;-89
2023/05/21 09:51:20;;;;;;;6.47;5.87;;;26.40;99.90;;;;;;6198402;23;20636;-88
2023/05/21 09:53:58;;;;;;;5.87;5.30;;;26.30;99.90;;;;;;6198206;23;20536;-87
2023/05/21 09:56:30;;;;;;;6.20;5.60;;;25.80;99.90;;;;;;6198567;23;20423;-88
2023/05/21 09:59:05;;;;;;;7.47;6.77;;;25.30;99.90;;;;;;6201361;23;20368;-87
2023/05/21 10:01:33;;;;;;;6.30;5.73;;;25.50;99.90;;;;;;6199868;23;20393;-88
2023/05/21 10:04:05;;;;;;;7.83;5.27;;;25.80;99.90;;;;;;6197440;23;20368;-87
2023/05/21 10:06:36;;;;;;;8.53;6.30;;;26.00;99.90;;;;;;6198454;23;20387;-85
2023/05/21 10:09:09;;;;;;;5.47;5.07;;;26.10;99.90;;;;;;6196360;23;20703;-87
2023/05/21 10:11:41;;;;;;;6.00;5.50;;;25.70;99.90;;;;;;6196530;23;20421;-83
2023/05/21 10:14:26;;;;;;;5.90;5.30;;;25.60;99.90;;;;;;6197472;23;20441;-90
2023/05/21 10:16:54;;;;;;;6.10;5.60;;;25.60;99.90;;;;;;6196638;23;20399;-82
2023/05/21 10:19:29;;;;;;;5.53;5.03;;;25.40;99.90;;;;;;6200481;23;20409;-88
2023/05/21 10:21:57;;;;;;;5.10;4.70;;;25.40;99.90;;;;;;6197408;23;20749;-87
2023/05/21 10:24:28;;;;;;;5.17;4.73;;;25.50;99.90;;;;;;6200537;23;20349;-84
2023/05/21 10:26:56;;;;;;;6.03;5.43;;;25.70;99.90;;;;;;6197508;23;20393;-91
2023/05/21 10:29:27;;;;;;;6.67;5.77;;;25.90;99.90;;;;;;6172178;23;20391;-88
2023/05/21 10:32:17;;;;;;;5.73;5.23;;;25.90;99.90;;;;;;6170880;23;20482;-85
2023/05/21 10:35:07;;;;;;;5.83;5.33;;;26.10;99.90;;;;;;6170014;23;20409;-89
2023/05/21 10:37:36;;;;;;;6.03;5.37;;;26.00;99.90;;;;;;6171955;23;20403;-84
2023/05/21 10:40:07;;;;;;;5.63;5.03;;;25.80;99.90;;;;;;6193796;23;20403;-87
2023/05/21 10:43:05;;;;;;;6.03;5.40;;;25.60;99.90;;;;;;6163877;23;20459;-89
2023/05/21 10:46:06;;;;;;;7.23;4.93;;;25.90;99.90;;;;;;6204193;23;20381;-86
2023/05/21 10:49:09;;;;;;;5.90;5.40;;;25.90;99.90;;;;;;6202356;23;20405;-85
2023/05/21 10:52:08;;;;;;;4.77;4.30;;;25.80;99.90;;;;;;6202820;23;20450;-86
2023/05/21 10:55:10;;;;;;;5.80;4.80;;;26.00;99.90;;;;;;6197146;23;20371;-87
2023/05/21 10:58:01;;;;;;;5.43;5.00;;;26.00;99.90;;;;;;6198449;23;20410;-87
2023/05/21 11:00:30;;;;;;;11.33;4.70;;;26.30;99.90;;;;;;6198610;23;20418;-85
2023/05/21 11:02:59;;;;;;;4.43;4.03;;;26.10;99.90;;;;;;6197745;23;20341;-84
2023/05/21 11:05:50;;;;;;;4.57;4.23;;;25.80;99.90;;;;;;6195946;23;20387;-85
2023/05/21 11:08:30;;;;;;;9.13;4.50;;;25.90;99.90;;;;;;6195003;23;20338;-89
2023/05/21 11:10:58;;;;;;;4.97;4.43;;;26.00;99.90;;;;;;6194120;23;20400;-86
2023/05/21 11:13:26;;;;;;;8.50;4.53;;;26.00;99.90;;;;;;6193614;23;20391;-84
2023/05/21 11:16:05;;;;;;;5.43;4.23;;;25.90;99.90;;;;;;6193468;23;20464;-88
2023/05/21 11:18:39;;;;;;;6.30;4.30;;;25.90;99.90;;;;;;6196885;23;20477;-83
2023/05/21 11:21:15;;;;;;;4.70;4.30;;;25.80;99.90;;;;;;6195738;23;20511;-88
2023/05/21 11:24:04;;;;;;;4.63;4.23;;;25.90;99.90;;;;;;6197109;23;20434;-85
2023/05/21 11:26:50;;;;;;;4.70;4.30;;;26.10;99.90;;;;;;6198228;23;20466;-86
2023/05/21 11:29:18;;;;;;;9.50;4.30;;;26.20;99.90;;;;;;6196940;23;20427;-85
2023/05/21 11:32:02;;;;;;;7.23;4.60;;;26.20;99.90;;;;;;6196187;23;20414;-84
2023/05/21 11:34:38;;;;;;;4.60;3.80;;;26.30;99.90;;;;;;6198550;23;20424;-87
2023/05/21 11:37:30;;;;;;;5.17;4.00;;;26.50;99.90;;;;;;6198138;23;20906;-88
2023/05/21 11:40:15;;;;;;;3.87;3.50;;;26.70;99.90;;;;;;6199296;23;20395;-85
2023/05/21 11:42:42;;;;;;;3.87;3.13;;;26.30;99.90;;;;;;6197369;23;20378;-85
2023/05/21 11:45:10;;;;;;;5.13;4.63;;;26.10;99.90;;;;;;6199288;23;20457;-87
2023/05/21 11:47:39;;;;;;;4.20;3.90;;;26.10;99.90;;;;;;6197617;23;20429;-86
2023/05/21 11:50:12;;;;;;;5.13;3.47;;;25.80;99.90;;;;;;6197342;23;20637;-85
2023/05/21 11:52:40;;;;;;;4.20;3.90;;;25.70;99.90;;;;;;6195915;23;20410;-87
2023/05/21 11:55:08;;;;;;;5.07;4.30;;;25.90;99.90;;;;;;6195520;23;20384;-87
2023/05/21 11:57:41;;;;;;;5.10;4.47;;;26.00;99.90;;;;;;6193854;23;20604;-84
2023/05/21 12:00:14;;;;;;;3.93;3.37;;;26.10;99.90;;;;;;6195125;23;20399;-84
2023/05/21 12:02:46;;;;;;;3.90;3.60;;;25.90;99.90;;;;;;6195407;23;20418;-87
2023/05/21 12:05:13;;;;;;;4.13;3.83;;;25.80;99.90;;;;;;6198474;23;20614;-89
2023/05/21 12:07:41;;;;;;;4.07;3.67;;;25.80;99.90;;;;;;6202584;23;20402;-85
2023/05/21 12:10:08;;;;;;;3.93;3.57;;;25.60;99.90;;;;;;6202875;23;20493;-84
2023/05/21 12:12:35;;;;;;;5.67;4.00;;;25.30;99.90;;;;;;6199221;23;20687;-87
2023/05/21 12:15:21;;;;;;;3.40;3.10;;;25.50;99.90;;;;;;6197791;23;20417;-84
2023/05/21 12:17:51;;;;;;;4.33;4.00;;;25.60;99.90;;;;;;6174461;23;20425;-85
2023/05/21 12:20:19;;;;;;;4.70;3.70;;;25.80;99.90;;;;;;6202243;23;20428;-86
2023/05/21 12:22:48;;;;;;;4.57;4.27;;;25.80;99.90;;;;;;6202543;23;20717;-86
2023/05/21 12:25:21;;;;;;;4.97;4.53;;;25.80;99.90;;;;;;6200452;23;20381;-87
2023/05/21 12:27:51;;;;;;;5.33;4.03;;;25.70;99.90;;;;;;6196104;23;20674;-86
2023/05/21 12:30:19;;;;;;;4.93;3.17;;;25.80;99.90;;;;;;6194781;23;20426;-87
2023/05/21 12:32:45;;;;;;;3.83;3.53;;;25.80;99.90;;;;;;6194915;23;20731;-87
2023/05/21 12:35:21;;;;;;;6.37;4.47;;;25.70;99.90;;;;;;6193361;23;20407;-89
2023/05/21 12:37:49;;;;;;;7.90;4.10;;;25.60;99.90;;;;;;6193224;23;20415;-84
2023/05/21 12:40:24;;;;;;;5.17;4.20;;;25.80;99.90;;;;;;6208958;23;20369;-84
2023/05/21 12:42:53;;;;;;;4.47;4.07;;;25.90;99.90;;;;;;6209095;23;20397;-84
2023/05/21 12:45:21;;;;;;;7.63;3.97;;;25.80;99.90;;;;;;6207228;23;20480;-85
2023/05/21 12:47:54;;;;;;;4.87;3.87;;;26.00;99.90;;;;;;6208107;23;20369;-86
2023/05/21 12:50:22;;;;;;;5.50;4.67;;;26.10;99.90;;;;;;6204934;23;20410;-86
2023/05/21 12:52:53;;;;;;;9.90;4.03;;;26.10;99.90;;;;;;6201851;23;20802;-84
2023/05/21 12:55:24;;;;;;;5.40;4.20;;;26.10;99.90;;;;;;6203159;23;20411;-83